createdAt,value
2022-10-29T00:00:43.445Z,8.55
2022-10-29T00:01:29.886Z,8.18
2022-10-29T00:02:16.278Z,8.71
2022-10-29T00:03:02.691Z,8.63
2022-10-29T00:03:49.575Z,8.19
2022-10-29T00:04:35.946Z,8.93
2022-10-29T00:05:22.311Z,8.64
2022-10-29T00:06:11.199Z,8.78
2022-10-29T00:06:57.711Z,9.29
2022-10-29T00:07:44.108Z,8.94
2022-10-29T00:08:31.803Z,8.44
2022-10-29T00:09:18.176Z,8.56
2022-10-29T00:10:05.030Z,8.89
2022-10-29T00:10:51.768Z,8.78
2022-10-29T00:11:38.118Z,8.76
2022-10-29T00:12:24.484Z,8.83
2022-10-29T00:13:10.901Z,9.35
2022-10-29T00:13:59.316Z,8.78
2022-10-29T00:14:45.789Z,9.48
2022-10-29T00:15:32.102Z,9.67
2022-10-29T00:16:19.910Z,9.83
2022-10-29T00:17:06.315Z,9.14
2022-10-29T00:17:52.813Z,8.78
2022-10-29T00:18:39.289Z,9.69
2022-10-29T00:19:27.639Z,9.54
2022-10-29T00:20:14.110Z,9.40
2022-10-29T00:21:01.634Z,9.14
2022-10-29T00:21:49.637Z,9.23
2022-10-29T00:22:36.325Z,9.65
2022-10-29T00:23:22.641Z,10.28
2022-10-29T00:24:09.945Z,9.72
2022-10-29T00:24:56.307Z,9.34
2022-10-29T00:25:42.653Z,9.21
2022-10-29T00:26:30.193Z,9.10
2022-10-29T00:27:16.865Z,9.47
2022-10-29T00:28:03.225Z,9.82
2022-10-29T00:28:53.301Z,9.39
2022-10-29T00:29:39.643Z,9.43
2022-10-29T00:30:26.267Z,9.13
2022-10-29T00:31:18.737Z,9.03
2022-10-29T00:32:05.499Z,10.03
2022-10-29T00:32:52.025Z,9.71
2022-10-29T00:33:38.762Z,9.54
2022-10-29T00:34:25.298Z,9.03
2022-10-29T00:35:11.618Z,8.68
2022-10-29T00:36:02.905Z,8.91
2022-10-29T00:36:49.264Z,9.21
2022-10-29T00:37:35.895Z,9.02
2022-10-29T00:38:22.653Z,8.48
2022-10-29T00:39:13.205Z,8.92
2022-10-29T00:39:59.522Z,8.80
2022-10-29T00:40:45.949Z,8.80
2022-10-29T00:41:32.271Z,8.56
2022-10-29T00:42:18.677Z,8.84
2022-10-29T00:43:31.166Z,8.47
2022-10-29T00:44:17.486Z,9.31
2022-10-29T00:45:04.011Z,8.99
2022-10-29T00:45:53.137Z,8.97
2022-10-29T00:46:41.878Z,8.80
2022-10-29T00:47:34.103Z,8.98
2022-10-29T00:48:23.028Z,8.50
2022-10-29T00:49:11.229Z,8.17
2022-10-29T00:50:02.150Z,8.57
2022-10-29T00:50:49.126Z,8.58
2022-10-29T00:51:36.970Z,8.78
2022-10-29T00:52:25.615Z,8.35
2022-10-29T00:53:12.384Z,8.74
2022-10-29T00:54:03.081Z,8.79
2022-10-29T00:54:51.592Z,8.42
2022-10-29T00:55:37.931Z,8.90
2022-10-29T00:56:26.542Z,9.48
2022-10-29T00:57:18.217Z,8.79
2022-10-29T00:58:04.775Z,8.63
2022-10-29T00:58:51.610Z,9.21
2022-10-29T00:59:38.500Z,8.60
2022-10-29T01:00:24.903Z,8.66
2022-10-29T01:01:11.415Z,8.73
2022-10-29T01:01:57.924Z,9.02
2022-10-29T01:02:46.036Z,8.32
2022-10-29T01:03:32.520Z,9.04
2022-10-29T01:04:18.935Z,9.09
2022-10-29T01:05:07.907Z,8.75
2022-10-29T01:05:54.838Z,8.33
2022-10-29T01:06:46.806Z,8.79
2022-10-29T01:07:34.386Z,8.96
2022-10-29T01:08:21.880Z,8.82
2022-10-29T01:09:08.243Z,8.97
2022-10-29T01:09:54.831Z,8.73
2022-10-29T01:11:04.385Z,9.27
2022-10-29T01:12:18.872Z,8.74
2022-10-29T01:13:05.217Z,8.72
2022-10-29T01:14:07.894Z,9.31
2022-10-29T01:14:56.738Z,9.28
2022-10-29T01:15:50.401Z,9.26
2022-10-29T01:16:51.834Z,9.54
2022-10-29T01:17:52.641Z,9.51
2022-10-29T01:18:52.868Z,9.78
2022-10-29T01:19:57.825Z,9.86
2022-10-29T01:20:53.427Z,9.04
2022-10-29T01:21:44.439Z,9.14
2022-10-29T01:22:39.554Z,8.71
2022-10-29T01:23:48.813Z,9.67
2022-10-29T01:24:53.830Z,9.82
2022-10-29T01:26:00.010Z,9.53
2022-10-29T01:27:02.952Z,9.33
2022-10-29T01:27:56.771Z,9.78
2022-10-29T01:29:01.822Z,9.47
2022-10-29T01:30:06.707Z,9.69
2022-10-29T01:31:05.316Z,9.19
2022-10-29T01:31:51.629Z,10.13
2022-10-29T01:32:41.088Z,9.88
2022-10-29T01:33:41.681Z,9.59
2022-10-29T01:34:36.935Z,9.50
2022-10-29T01:35:26.188Z,10.23
2022-10-29T01:36:12.578Z,9.60
2022-10-29T01:37:08.018Z,10.59
2022-10-29T01:37:57.239Z,10.87
2022-10-29T01:38:58.128Z,10.74
2022-10-29T01:40:02.625Z,10.08
2022-10-29T01:40:58.863Z,10.70
2022-10-29T01:41:54.162Z,10.66
2022-10-29T01:42:48.190Z,11.42
2022-10-29T01:43:40.892Z,12.00
2022-10-29T01:44:32.983Z,11.68
2022-10-29T01:45:24.438Z,11.75
2022-10-29T01:46:34.939Z,11.02
2022-10-29T01:47:25.613Z,10.60
2022-10-29T01:48:14.988Z,11.05
2022-10-29T01:49:05.646Z,10.80
2022-10-29T01:49:56.661Z,11.03
2022-10-29T01:50:46.351Z,11.33
2022-10-29T01:51:35.732Z,10.97
2022-10-29T01:52:23.000Z,9.98
2022-10-29T01:53:11.818Z,9.92
2022-10-29T01:54:00.995Z,10.81
2022-10-29T01:54:47.893Z,10.94
2022-10-29T01:55:37.277Z,10.96
2022-10-29T01:56:23.651Z,11.15
2022-10-29T01:57:27.575Z,11.20
2022-10-29T01:58:14.706Z,11.69
2022-10-29T01:59:04.140Z,11.45
2022-10-29T01:59:56.097Z,11.02
2022-10-29T02:00:57.144Z,11.02
2022-10-29T02:01:49.593Z,11.35
2022-10-29T02:02:48.608Z,10.82
2022-10-29T02:03:50.366Z,10.52
2022-10-29T02:04:40.771Z,10.67
2022-10-29T02:05:39.290Z,11.01
2022-10-29T02:06:44.359Z,10.70
2022-10-29T02:07:38.291Z,10.59
2022-10-29T02:08:39.382Z,10.30
2022-10-29T02:09:34.373Z,10.86
2022-10-29T02:10:41.624Z,10.15
2022-10-29T02:11:35.775Z,9.80
2022-10-29T02:12:33.438Z,9.91
2022-10-29T02:13:24.276Z,10.16
2022-10-29T02:14:16.541Z,10.28
2022-10-29T02:15:06.933Z,10.31
2022-10-29T02:15:56.413Z,10.50
2022-10-29T02:16:43.915Z,10.60
2022-10-29T02:17:32.135Z,10.50
2022-10-29T02:18:18.829Z,10.88
2022-10-29T02:19:05.635Z,10.33
2022-10-29T02:19:52.012Z,10.03
2022-10-29T02:20:42.771Z,10.18
2022-10-29T02:21:29.203Z,9.72
2022-10-29T02:22:15.546Z,9.85
2022-10-29T02:23:01.912Z,10.16
2022-10-29T02:23:48.313Z,9.80
2022-10-29T02:24:34.641Z,9.18
2022-10-29T02:25:21.608Z,9.61
2022-10-29T02:26:08.066Z,9.93
2022-10-29T02:26:54.699Z,9.81
2022-10-29T02:27:41.897Z,9.41
2022-10-29T02:28:28.263Z,10.12
2022-10-29T02:29:14.587Z,10.20
2022-10-29T02:30:00.965Z,9.73
2022-10-29T02:30:47.569Z,9.85
2022-10-29T02:31:36.114Z,9.99
2022-10-29T02:32:22.510Z,10.28
2022-10-29T02:33:08.836Z,10.11
2022-10-29T02:33:55.219Z,10.24
2022-10-29T02:34:41.526Z,10.20
2022-10-29T02:35:27.959Z,9.79
2022-10-29T02:36:14.346Z,9.94
2022-10-29T02:37:00.709Z,9.98
2022-10-29T02:37:47.052Z,10.16
2022-10-29T02:38:33.419Z,10.36
2022-10-29T02:39:19.777Z,10.40
2022-10-29T02:40:06.624Z,10.45
2022-10-29T02:40:53.028Z,10.16
2022-10-29T02:41:39.365Z,10.16
2022-10-29T02:42:26.046Z,10.37
2022-10-29T02:43:12.431Z,10.29
2022-10-29T02:43:58.809Z,10.35
2022-10-29T02:44:45.201Z,10.86
2022-10-29T02:45:31.592Z,10.30
2022-10-29T02:46:19.723Z,10.30
2022-10-29T02:47:06.060Z,10.52
2022-10-29T02:47:52.404Z,10.52
2022-10-29T02:48:39.995Z,10.48
2022-10-29T02:49:26.402Z,10.28
2022-10-29T02:50:12.771Z,10.00
2022-10-29T02:50:59.061Z,9.95
2022-10-29T02:51:45.759Z,10.65
2022-10-29T02:52:32.151Z,10.47
2022-10-29T02:53:18.501Z,10.34
2022-10-29T02:54:04.924Z,10.87
2022-10-29T02:54:51.291Z,10.80
2022-10-29T02:55:37.647Z,10.70
2022-10-29T02:56:24.509Z,10.68
2022-10-29T02:57:10.870Z,10.50
2022-10-29T02:57:57.545Z,10.84
2022-10-29T02:58:44.294Z,10.46
2022-10-29T02:59:30.696Z,10.13
2022-10-29T03:00:17.106Z,10.36
2022-10-29T03:01:03.761Z,10.48
2022-10-29T03:01:50.313Z,10.38
2022-10-29T03:02:37.111Z,10.39
2022-10-29T03:03:24.352Z,10.79
2022-10-29T03:04:11.532Z,11.01
2022-10-29T03:04:57.883Z,11.08
2022-10-29T03:05:48.170Z,11.11
2022-10-29T03:06:37.142Z,11.38
2022-10-29T03:07:23.702Z,11.63
2022-10-29T03:08:10.178Z,11.29
2022-10-29T03:08:56.568Z,11.11
2022-10-29T03:09:42.942Z,11.30
2022-10-29T03:10:29.371Z,10.91
2022-10-29T03:11:16.325Z,11.19
2022-10-29T03:12:02.810Z,11.38
2022-10-29T03:12:49.168Z,11.13
2022-10-29T03:13:35.714Z,11.56
2022-10-29T03:14:22.042Z,11.16
2022-10-29T03:15:08.563Z,10.58
2022-10-29T03:15:55.255Z,11.55
2022-10-29T03:16:41.579Z,11.69
2022-10-29T03:17:28.080Z,11.33
2022-10-29T03:18:14.559Z,12.18
2022-10-29T03:19:00.895Z,14.24
2022-10-29T03:19:47.270Z,13.74
2022-10-29T03:20:33.586Z,12.30
2022-10-29T03:21:19.952Z,11.07
2022-10-29T03:22:06.431Z,11.66
2022-10-29T03:22:52.796Z,12.06
2022-10-29T03:23:39.201Z,11.43
2022-10-29T03:24:25.541Z,12.05
2022-10-29T03:25:11.909Z,11.13
2022-10-29T03:25:58.275Z,11.54
2022-10-29T03:26:44.623Z,11.66
2022-10-29T03:27:31.025Z,11.49
2022-10-29T03:28:17.515Z,11.17
2022-10-29T03:29:03.856Z,10.86
2022-10-29T03:29:50.313Z,11.71
2022-10-29T03:30:36.690Z,11.57
2022-10-29T03:31:23.065Z,11.68
2022-10-29T03:32:09.438Z,11.09
2022-10-29T03:32:55.977Z,10.90
2022-10-29T03:33:42.535Z,10.56
2022-10-29T03:34:28.875Z,11.15
2022-10-29T03:35:16.592Z,10.94
2022-10-29T03:36:05.443Z,10.90
2022-10-29T03:36:51.848Z,10.98
2022-10-29T03:37:38.415Z,10.79
2022-10-29T03:38:25.646Z,10.97
2022-10-29T03:39:12.188Z,10.98
2022-10-29T03:39:58.541Z,11.13
2022-10-29T03:40:44.869Z,10.46
2022-10-29T03:41:31.449Z,10.21
2022-10-29T03:42:17.792Z,10.47
2022-10-29T03:43:04.091Z,10.53
2022-10-29T03:43:50.631Z,11.53
2022-10-29T03:44:37.042Z,11.18
2022-10-29T03:45:23.614Z,10.94
2022-10-29T03:46:10.240Z,10.44
2022-10-29T03:46:56.563Z,10.45
2022-10-29T03:47:42.952Z,10.51
2022-10-29T03:48:29.304Z,10.45
2022-10-29T03:49:15.673Z,10.61
2022-10-29T03:50:02.525Z,9.28
2022-10-29T03:50:53.839Z,9.67
2022-10-29T03:51:40.199Z,9.89
2022-10-29T03:52:26.698Z,10.27
2022-10-29T03:53:13.523Z,10.44
2022-10-29T03:53:59.850Z,10.59
2022-10-29T03:54:46.295Z,10.64
2022-10-29T03:55:32.625Z,10.30
2022-10-29T03:56:18.954Z,10.15
2022-10-29T03:57:05.306Z,10.68
2022-10-29T03:57:51.593Z,10.09
2022-10-29T03:58:37.993Z,10.41
2022-10-29T03:59:24.512Z,10.17
2022-10-29T04:00:11.080Z,9.87
2022-10-29T04:01:02.293Z,10.01
2022-10-29T04:01:49.114Z,10.18
2022-10-29T04:02:35.714Z,10.67
2022-10-29T04:03:23.075Z,9.82
2022-10-29T04:04:09.919Z,9.37
2022-10-29T04:04:56.708Z,10.00
2022-10-29T04:05:43.071Z,9.88
2022-10-29T04:06:29.461Z,9.84
2022-10-29T04:07:16.101Z,9.51
2022-10-29T04:08:02.504Z,9.69
2022-10-29T04:08:48.832Z,9.82
2022-10-29T04:09:35.178Z,9.52
2022-10-29T04:10:21.579Z,10.08
2022-10-29T04:11:10.905Z,10.20
2022-10-29T04:11:57.528Z,9.78
2022-10-29T04:12:46.907Z,9.52
2022-10-29T04:13:33.369Z,9.93
2022-10-29T04:14:19.688Z,9.62
2022-10-29T04:15:06.368Z,9.72
2022-10-29T04:15:56.654Z,9.13
2022-10-29T04:16:43.046Z,9.72
2022-10-29T04:17:29.525Z,9.53
2022-10-29T04:18:15.888Z,9.05
2022-10-29T04:19:02.394Z,9.50
2022-10-29T04:19:48.758Z,9.80
2022-10-29T04:21:03.136Z,9.77
2022-10-29T04:28:36.754Z,8.91
2022-10-29T04:29:30.425Z,9.97
2022-10-29T04:30:16.797Z,9.49
2022-10-29T04:31:04.025Z,9.51
2022-10-29T04:31:50.691Z,9.33
2022-10-29T04:32:37.029Z,9.24
2022-10-29T04:33:23.453Z,9.93
2022-10-29T04:34:09.813Z,9.65
2022-10-29T04:34:56.173Z,9.23
2022-10-29T04:35:42.517Z,10.18
2022-10-29T04:36:28.900Z,10.00
2022-10-29T04:37:15.223Z,9.62
2022-10-29T04:38:07.744Z,9.52
2022-10-29T04:38:54.158Z,10.31
2022-10-29T04:39:40.471Z,10.08
2022-10-29T04:40:26.885Z,10.11
2022-10-29T04:41:14.295Z,9.72
2022-10-29T04:42:00.826Z,9.12
2022-10-29T04:42:47.145Z,10.26
2022-10-29T04:43:33.519Z,9.99
2022-10-29T04:44:20.193Z,9.75
2022-10-29T04:45:07.391Z,9.91
2022-10-29T04:45:54.847Z,10.45
2022-10-29T04:46:41.190Z,10.36
2022-10-29T04:47:27.554Z,10.72
2022-10-29T04:48:13.862Z,10.32
2022-10-29T04:49:00.305Z,10.88
2022-10-29T04:49:46.712Z,10.21
2022-10-29T04:50:33.572Z,10.46
2022-10-29T04:51:24.233Z,9.89
2022-10-29T04:52:10.638Z,9.19
2022-10-29T04:53:01.136Z,9.22
2022-10-29T04:53:47.575Z,9.15
2022-10-29T04:54:33.946Z,9.18
2022-10-29T04:55:20.332Z,9.71
2022-10-29T04:56:06.848Z,8.70
2022-10-29T04:56:53.277Z,8.35
2022-10-29T04:57:39.605Z,8.71
2022-10-29T04:58:26.002Z,9.03
2022-10-29T04:59:12.690Z,9.41
2022-10-29T04:59:59.119Z,9.47
2022-10-29T05:00:46.177Z,9.32
2022-10-29T05:01:32.696Z,9.19
2022-10-29T05:02:19.186Z,8.70
2022-10-29T05:03:05.547Z,8.70
2022-10-29T05:03:55.561Z,9.24
2022-10-29T05:04:45.301Z,8.45
2022-10-29T05:05:31.765Z,8.77
2022-10-29T05:06:18.137Z,9.05
2022-10-29T05:07:05.258Z,8.76
2022-10-29T05:08:01.801Z,8.88
2022-10-29T05:08:48.172Z,9.01
2022-10-29T05:09:34.523Z,9.44
2022-10-29T05:10:21.153Z,8.69
2022-10-29T05:11:07.977Z,8.59
2022-10-29T05:11:54.267Z,8.43
2022-10-29T05:12:40.924Z,8.48
2022-10-29T05:13:27.322Z,8.81
2022-10-29T05:14:13.671Z,8.82
2022-10-29T05:15:00.127Z,8.97
2022-10-29T05:15:53.493Z,9.14
2022-10-29T05:16:40.068Z,8.83
2022-10-29T05:17:26.551Z,8.53
2022-10-29T05:18:13.103Z,8.71
2022-10-29T05:18:59.523Z,8.88
2022-10-29T05:19:46.094Z,8.28
2022-10-29T05:20:33.214Z,9.12
2022-10-29T05:21:19.584Z,9.43
2022-10-29T05:22:05.918Z,9.26
2022-10-29T05:23:07.320Z,9.55
2022-10-29T05:23:53.695Z,9.53
2022-10-29T05:24:40.034Z,9.00
2022-10-29T05:25:27.002Z,9.21
2022-10-29T05:26:13.410Z,8.62
2022-10-29T05:26:59.833Z,9.30
2022-10-29T05:27:46.170Z,9.12
2022-10-29T05:28:32.543Z,8.65
2022-10-29T05:29:18.837Z,8.95
2022-10-29T05:30:05.650Z,9.06
2022-10-29T05:30:55.095Z,9.35
2022-10-29T05:31:41.470Z,9.70
2022-10-29T05:32:30.623Z,9.44
2022-10-29T05:33:21.987Z,9.11
2022-10-29T05:34:08.395Z,8.44
2022-10-29T05:34:54.763Z,8.56
2022-10-29T05:35:41.148Z,8.86
2022-10-29T05:36:27.774Z,9.06
2022-10-29T05:37:14.066Z,8.93
2022-10-29T05:38:00.439Z,8.60
2022-10-29T05:38:46.866Z,8.80
2022-10-29T05:39:33.278Z,8.56
2022-10-29T05:40:20.433Z,8.89
2022-10-29T05:41:06.749Z,8.57
2022-10-29T05:41:53.172Z,8.31
2022-10-29T05:42:43.585Z,8.09
2022-10-29T05:43:32.793Z,8.63
2022-10-29T05:44:19.077Z,9.77
2022-10-29T05:45:05.610Z,9.54
2022-10-29T05:45:51.962Z,9.67
2022-10-29T05:46:38.304Z,9.83
2022-10-29T05:47:24.772Z,9.86
2022-10-29T05:49:03.650Z,9.81
2022-10-29T05:49:49.932Z,9.65
2022-10-29T05:50:36.608Z,9.70
2022-10-29T05:51:22.941Z,9.64
2022-10-29T05:52:09.364Z,9.88
2022-10-29T05:52:56.883Z,9.48
2022-10-29T05:53:43.513Z,9.25
2022-10-29T05:54:29.969Z,9.47
2022-10-29T05:55:16.449Z,9.88
2022-10-29T05:56:02.808Z,10.25
2022-10-29T05:56:49.389Z,9.66
2022-10-29T05:57:35.693Z,9.83
2022-10-29T05:58:22.117Z,9.52
2022-10-29T05:59:08.434Z,9.79
2022-10-29T05:59:54.787Z,9.74
2022-10-29T06:00:43.132Z,9.62
2022-10-29T06:01:31.976Z,8.90
2022-10-29T06:02:18.685Z,9.67
2022-10-29T06:03:12.415Z,9.63
2022-10-29T06:04:01.146Z,9.54
2022-10-29T06:04:47.511Z,9.23
2022-10-29T06:05:34.035Z,8.68
2022-10-29T06:06:20.453Z,8.71
2022-10-29T06:07:06.823Z,9.23
2022-10-29T06:07:54.829Z,8.99
2022-10-29T06:08:41.383Z,8.74
2022-10-29T06:09:27.697Z,8.42
2022-10-29T06:10:14.107Z,8.70
2022-10-29T06:11:00.999Z,8.45
2022-10-29T06:11:47.331Z,8.05
2022-10-29T06:12:34.959Z,8.49
2022-10-29T06:13:22.179Z,8.90
2022-10-29T06:14:08.618Z,8.41
2022-10-29T06:14:55.517Z,8.74
2022-10-29T06:15:42.000Z,8.80
2022-10-29T06:16:28.352Z,8.41
2022-10-29T06:17:14.745Z,8.64
2022-10-29T06:18:01.068Z,8.63
2022-10-29T06:18:47.426Z,8.55
2022-10-29T06:19:33.848Z,8.23
2022-10-29T06:20:21.562Z,8.48
2022-10-29T06:21:08.310Z,8.13
2022-10-29T06:21:57.830Z,8.26
2022-10-29T06:22:46.804Z,8.71
2022-10-29T06:23:33.234Z,8.83
2022-10-29T06:24:19.568Z,8.26
2022-10-29T06:25:07.340Z,8.72
2022-10-29T06:25:53.685Z,8.73
2022-10-29T06:26:40.295Z,8.17
2022-10-29T06:27:26.708Z,8.59
2022-10-29T06:28:15.161Z,8.10
2022-10-29T06:29:01.932Z,8.14
2022-10-29T06:29:48.502Z,8.18
2022-10-29T06:30:36.078Z,8.45
2022-10-29T06:31:22.437Z,8.23
2022-10-29T06:32:08.736Z,7.85
2022-10-29T06:32:55.342Z,7.99
2022-10-29T06:33:41.937Z,8.17
2022-10-29T06:34:28.255Z,7.86
2022-10-29T06:35:15.147Z,7.92
2022-10-29T06:36:02.050Z,7.97
2022-10-29T06:36:48.380Z,7.93
2022-10-29T06:37:37.637Z,7.57
2022-10-29T06:38:24.283Z,7.65
2022-10-29T06:39:10.710Z,7.70
2022-10-29T06:39:57.083Z,8.22
2022-10-29T06:40:50.729Z,7.94
2022-10-29T06:41:37.124Z,7.87
2022-10-29T06:42:23.666Z,7.72
2022-10-29T06:43:11.669Z,7.71
2022-10-29T06:43:58.029Z,8.09
2022-10-29T06:44:44.345Z,8.23
2022-10-29T06:45:31.247Z,7.81
2022-10-29T06:46:17.626Z,8.34
2022-10-29T06:47:04.039Z,8.36
2022-10-29T06:47:50.795Z,8.38
2022-10-29T06:48:37.162Z,7.71
2022-10-29T06:49:23.682Z,7.68
2022-10-29T06:50:11.226Z,7.95
2022-10-29T06:51:00.912Z,7.78
2022-10-29T06:51:47.454Z,8.05
2022-10-29T06:52:34.373Z,8.06
2022-10-29T06:53:20.710Z,8.38
2022-10-29T06:54:07.219Z,8.42
2022-10-29T06:54:53.544Z,8.28
2022-10-29T06:55:40.205Z,8.56
2022-10-29T06:56:26.706Z,7.88
2022-10-29T06:57:13.001Z,7.99
2022-10-29T06:58:01.199Z,8.23
2022-10-29T06:58:47.772Z,8.33
2022-10-29T06:59:34.072Z,8.53
2022-10-29T07:00:20.522Z,8.25
2022-10-29T07:01:06.974Z,8.06
2022-10-29T07:01:53.721Z,8.39
2022-10-29T07:02:40.327Z,8.43
2022-10-29T07:03:26.819Z,8.20
2022-10-29T07:04:13.526Z,8.33
2022-10-29T07:04:59.833Z,8.51
2022-10-29T07:05:46.900Z,8.16
2022-10-29T07:06:34.355Z,8.61
2022-10-29T07:07:20.768Z,8.18
2022-10-29T07:08:07.537Z,7.70
2022-10-29T07:08:54.014Z,7.90
2022-10-29T07:09:40.408Z,8.07
2022-10-29T07:10:28.051Z,7.72
2022-10-29T07:11:14.442Z,7.91
2022-10-29T07:12:00.760Z,7.71
2022-10-29T07:12:47.183Z,7.74
2022-10-29T07:13:33.521Z,8.66
2022-10-29T07:14:19.812Z,8.60
2022-10-29T07:15:06.266Z,8.41
2022-10-29T07:15:52.943Z,8.44
2022-10-29T07:16:39.274Z,8.72
2022-10-29T07:17:25.600Z,9.06
2022-10-29T07:18:12.285Z,9.26
2022-10-29T07:18:58.780Z,9.35
2022-10-29T07:19:45.164Z,9.66
2022-10-29T07:20:33.388Z,9.27
2022-10-29T07:21:19.711Z,8.63
2022-10-29T07:22:06.110Z,9.10
2022-10-29T07:22:52.571Z,8.99
2022-10-29T07:23:39.065Z,8.61
2022-10-29T07:24:25.401Z,8.70
2022-10-29T07:25:11.712Z,8.57
2022-10-29T07:25:58.228Z,8.60
2022-10-29T07:26:44.560Z,9.05
2022-10-29T07:27:30.938Z,8.40
2022-10-29T07:28:22.961Z,8.41
2022-10-29T07:29:09.480Z,8.32
2022-10-29T07:29:55.807Z,8.54
2022-10-29T07:30:43.385Z,8.35
2022-10-29T07:31:31.269Z,8.27
2022-10-29T07:32:17.602Z,8.85
2022-10-29T07:33:04.295Z,9.22
2022-10-29T07:33:50.697Z,8.73
2022-10-29T07:34:37.043Z,8.33
2022-10-29T07:35:23.410Z,8.36
2022-10-29T07:36:09.741Z,8.30
2022-10-29T07:36:56.428Z,8.67
2022-10-29T07:37:42.771Z,8.47
2022-10-29T07:38:29.568Z,7.89
2022-10-29T07:39:15.956Z,7.55
2022-10-29T07:40:02.291Z,7.56
2022-10-29T07:40:50.024Z,7.80
2022-10-29T07:41:36.324Z,8.20
2022-10-29T07:42:22.633Z,7.90
2022-10-29T07:43:09.394Z,8.01
2022-10-29T07:43:55.718Z,8.61
2022-10-29T07:44:42.056Z,8.13
2022-10-29T07:45:28.589Z,7.85
2022-10-29T07:46:14.889Z,7.50
2022-10-29T07:47:02.957Z,8.28
2022-10-29T07:47:49.692Z,7.88
2022-10-29T07:48:36.245Z,7.45
2022-10-29T07:49:22.613Z,7.46
2022-10-29T07:50:09.135Z,7.83
2022-10-29T07:50:58.261Z,8.73
2022-10-29T07:51:44.658Z,8.24
2022-10-29T07:52:30.980Z,8.00
2022-10-29T07:53:17.523Z,7.92
2022-10-29T07:54:04.199Z,7.32
2022-10-29T07:54:50.608Z,7.83
2022-10-29T07:55:37.710Z,7.91
2022-10-29T07:56:24.201Z,8.35
2022-10-29T07:57:10.512Z,7.78
2022-10-29T07:58:02.228Z,7.89
2022-10-29T07:58:48.637Z,7.70
2022-10-29T07:59:34.987Z,7.52
2022-10-29T08:00:21.368Z,7.77
2022-10-29T08:01:07.782Z,8.19
2022-10-29T08:01:54.320Z,8.23
2022-10-29T08:02:42.100Z,8.19
2022-10-29T08:03:28.455Z,8.22
2022-10-29T08:04:14.816Z,8.08
2022-10-29T08:05:01.149Z,8.40
2022-10-29T08:05:55.205Z,7.95
2022-10-29T08:06:43.060Z,7.48
2022-10-29T08:07:29.358Z,7.85
2022-10-29T08:08:17.488Z,7.94
2022-10-29T08:09:03.896Z,6.91
2022-10-29T08:09:50.203Z,7.82
2022-10-29T08:10:36.646Z,7.81
2022-10-29T08:11:23.606Z,7.54
2022-10-29T08:12:10.815Z,7.54
2022-10-29T08:12:59.249Z,6.99
2022-10-29T08:13:48.003Z,7.22
2022-10-29T08:14:34.295Z,7.53
2022-10-29T08:15:21.448Z,7.44
2022-10-29T08:16:07.917Z,7.47
2022-10-29T08:16:54.751Z,6.69
2022-10-29T08:17:41.102Z,6.62
2022-10-29T08:18:27.494Z,7.24
2022-10-29T08:19:14.117Z,7.45
2022-10-29T08:20:00.420Z,7.47
2022-10-29T08:20:47.139Z,7.17
2022-10-29T08:21:33.428Z,6.98
2022-10-29T08:22:19.875Z,7.02
2022-10-29T08:23:06.338Z,7.32
2022-10-29T08:23:52.881Z,7.09
2022-10-29T08:24:39.192Z,6.69
2022-10-29T08:25:26.265Z,6.79
2022-10-29T08:26:12.598Z,7.39
2022-10-29T08:26:58.921Z,7.52
2022-10-29T08:27:45.545Z,6.92
2022-10-29T08:28:35.621Z,7.18
2022-10-29T08:29:22.128Z,6.97
2022-10-29T08:30:12.044Z,7.51
2022-10-29T08:30:58.374Z,6.91
2022-10-29T08:31:44.705Z,7.52
2022-10-29T08:32:31.072Z,7.33
2022-10-29T08:33:18.215Z,7.52
2022-10-29T08:34:10.005Z,7.34
2022-10-29T08:34:57.454Z,7.45
2022-10-29T08:35:43.794Z,7.05
2022-10-29T08:36:30.108Z,7.32
2022-10-29T08:37:16.623Z,7.43
2022-10-29T08:38:03.106Z,7.16
2022-10-29T08:38:49.425Z,6.87
2022-10-29T08:39:35.746Z,7.37
2022-10-29T08:40:24.845Z,7.07
2022-10-29T08:41:26.378Z,7.07
2022-10-29T08:42:29.055Z,7.12
2022-10-29T08:43:28.000Z,7.02
2022-10-29T08:44:32.447Z,7.19
2022-10-29T08:45:25.247Z,7.01
2022-10-29T08:46:22.009Z,7.05
2022-10-29T08:47:14.926Z,7.23
2022-10-29T08:48:18.899Z,7.07
2022-10-29T08:49:11.694Z,7.31
2022-10-29T08:49:57.980Z,6.94
2022-10-29T08:50:48.940Z,7.05
2022-10-29T08:51:38.619Z,7.63
2022-10-29T08:52:29.120Z,8.26
2022-10-29T08:53:23.720Z,10.92
2022-10-29T08:55:22.625Z,8.70
2022-10-29T08:56:14.207Z,8.70
2022-10-29T08:57:06.921Z,9.01
2022-10-29T08:57:56.938Z,8.88
2022-10-29T08:58:50.500Z,7.91
2022-10-29T08:59:43.363Z,8.13
2022-10-29T09:00:36.752Z,7.23
2022-10-29T09:01:27.870Z,7.39
2022-10-29T09:02:18.377Z,7.46
2022-10-29T09:03:12.295Z,7.39
2022-10-29T09:03:58.752Z,7.42
2022-10-29T09:04:45.465Z,7.28
2022-10-29T09:05:41.119Z,7.24
2022-10-29T09:06:43.275Z,7.68
2022-10-29T09:07:58.400Z,6.90
2022-10-29T09:09:00.738Z,7.53
2022-10-29T09:09:54.038Z,7.30
2022-10-29T09:10:51.659Z,7.22
2022-10-29T09:11:58.326Z,7.18
2022-10-29T09:13:04.901Z,7.25
2022-10-29T09:14:18.680Z,6.99
2022-10-29T09:15:25.826Z,7.13
2022-10-29T09:16:23.001Z,7.17
2022-10-29T09:17:21.410Z,6.95
2022-10-29T09:18:19.616Z,7.06
2022-10-29T09:19:16.258Z,6.58
2022-10-29T09:20:17.820Z,7.11
2022-10-29T09:21:12.281Z,7.04
2022-10-29T09:22:15.173Z,6.91
2022-10-29T09:23:02.865Z,6.50
2022-10-29T09:24:08.740Z,6.86
2022-10-29T09:25:08.074Z,6.92
2022-10-29T09:26:04.866Z,7.23
2022-10-29T09:26:57.367Z,7.27
2022-10-29T09:27:57.605Z,6.60
2022-10-29T09:29:02.570Z,6.93
2022-10-29T09:30:04.447Z,7.36
2022-10-29T09:31:11.169Z,7.19
2022-10-29T09:32:02.799Z,6.87
2022-10-29T09:33:09.401Z,6.76
2022-10-29T09:34:04.323Z,7.02
2022-10-29T09:34:52.989Z,6.91
2022-10-29T09:35:41.598Z,6.59
2022-10-29T09:36:30.010Z,6.73
2022-10-29T09:37:28.634Z,6.82
2022-10-29T09:38:18.776Z,6.74
2022-10-29T09:39:20.669Z,6.73
2022-10-29T09:40:19.639Z,6.86
2022-10-29T09:41:10.334Z,6.35
2022-10-29T09:41:57.887Z,6.35
2022-10-29T09:42:47.446Z,6.51
2022-10-29T09:43:45.905Z,6.74
2022-10-29T09:44:41.481Z,6.47
2022-10-29T09:45:35.990Z,6.29
2022-10-29T09:46:34.346Z,6.50
2022-10-29T09:47:39.105Z,6.55
2022-10-29T09:48:31.332Z,6.75
2022-10-29T09:49:37.928Z,7.11
2022-10-29T09:50:37.308Z,6.27
2022-10-29T09:51:33.885Z,6.32
2022-10-29T09:52:49.488Z,6.14
2022-10-29T09:53:36.104Z,6.71
2022-10-29T09:54:28.089Z,6.09
2022-10-29T09:55:21.043Z,6.44
2022-10-29T09:56:08.965Z,6.57
2022-10-29T09:56:56.989Z,6.32
2022-10-29T09:57:43.827Z,6.59
2022-10-29T09:58:30.237Z,6.35
2022-10-29T09:59:39.913Z,6.71
2022-10-29T10:00:28.627Z,6.74
2022-10-29T10:01:15.720Z,6.32
2022-10-29T10:02:02.805Z,6.55
2022-10-29T10:02:55.222Z,6.38
2022-10-29T10:03:45.582Z,6.46
2022-10-29T10:04:41.753Z,6.81
2022-10-29T10:05:29.676Z,6.30
2022-10-29T10:06:17.045Z,6.25
2022-10-29T10:07:17.156Z,6.17
2022-10-29T10:08:08.311Z,6.35
2022-10-29T10:09:00.477Z,5.61
2022-10-29T10:09:58.091Z,5.83
2022-10-29T10:10:53.318Z,6.29
2022-10-29T10:11:49.340Z,5.48
2022-10-29T10:12:38.534Z,5.46
2022-10-29T10:13:50.854Z,5.84
2022-10-29T10:14:37.843Z,6.00
2022-10-29T10:15:33.155Z,6.19
2022-10-29T10:16:28.072Z,6.10
2022-10-29T10:17:15.036Z,5.58
2022-10-29T10:18:04.497Z,5.69
2022-10-29T10:18:50.961Z,6.15
2022-10-29T10:19:43.090Z,5.68
2022-10-29T10:20:29.422Z,5.48
2022-10-29T10:21:29.502Z,5.53
2022-10-29T10:22:21.384Z,6.01
2022-10-29T10:23:23.038Z,5.89
2022-10-29T10:24:28.197Z,5.96
2022-10-29T10:25:31.912Z,5.82
2022-10-29T10:26:33.418Z,5.91
2022-10-29T10:27:19.711Z,6.23
2022-10-29T10:28:16.001Z,6.09
2022-10-29T10:29:08.450Z,6.15
2022-10-29T10:30:03.638Z,5.92
2022-10-29T10:31:11.576Z,5.74
2022-10-29T10:31:57.934Z,6.46
2022-10-29T10:32:44.303Z,6.33
2022-10-29T10:33:31.878Z,5.97
2022-10-29T10:34:25.868Z,6.26
2022-10-29T10:35:30.111Z,6.07
2022-10-29T10:36:17.287Z,5.95
2022-10-29T10:37:05.504Z,6.41
2022-10-29T10:37:52.287Z,6.71
2022-10-29T10:38:53.754Z,6.40
2022-10-29T10:39:49.506Z,5.64
2022-10-29T10:40:36.295Z,6.34
2022-10-29T10:41:31.282Z,6.39
2022-10-29T10:42:23.736Z,6.00
2022-10-29T10:43:19.518Z,5.66
2022-10-29T10:44:06.075Z,6.13
2022-10-29T10:45:03.619Z,5.92
2022-10-29T10:45:53.596Z,6.00
2022-10-29T10:46:42.595Z,6.01
2022-10-29T10:47:31.601Z,5.98
2022-10-29T10:48:18.379Z,5.53
2022-10-29T10:49:04.858Z,5.78
2022-10-29T10:49:51.249Z,5.72
2022-10-29T10:50:37.867Z,6.27
2022-10-29T10:51:27.477Z,6.02
2022-10-29T10:52:35.132Z,5.81
2022-10-29T10:53:25.822Z,6.07
2022-10-29T10:54:44.786Z,5.65
2022-10-29T10:55:37.906Z,6.02
2022-10-29T10:56:24.352Z,6.21
2022-10-29T10:57:10.737Z,5.67
2022-10-29T10:58:06.010Z,6.32
2022-10-29T10:58:59.520Z,5.78
2022-10-29T11:00:06.287Z,5.49
2022-10-29T11:01:02.056Z,6.00
2022-10-29T11:01:51.508Z,5.81